sensor_id;sensor_type;location;lat;lon;timestamp;pressure;altitude;pressure_sealevel;temperature;humidity
61898;BME280;47850;50.274;18.908;2024-02-15T00:00:17;98567.16;;;5.66;91.08
61898;BME280;47850;50.274;18.908;2024-02-15T00:03:25;98569.98;;;5.66;91.12
61898;BME280;47850;50.274;18.908;2024-02-15T00:05:53;98573.34;;;5.67;91.38
61898;BME280;47850;50.274;18.908;2024-02-15T00:08:21;98577.92;;;5.67;91.24
61898;BME280;47850;50.274;18.908;2024-02-15T00:10:48;98583.02;;;5.68;91.34
61898;BME280;47850;50.274;18.908;2024-02-15T00:13:16;98585.02;;;5.69;91.28
61898;BME280;47850;50.274;18.908;2024-02-15T00:15:44;98589.83;;;5.71;91.15
61898;BME280;47850;50.274;18.908;2024-02-15T00:18:16;98590.48;;;5.72;91.24
61898;BME280;47850;50.274;18.908;2024-02-15T00:20:43;98594.48;;;5.73;91.35
61898;BME280;47850;50.274;18.908;2024-02-15T00:23:11;98591.82;;;5.72;91.27
61898;BME280;47850;50.274;18.908;2024-02-15T00:25:39;98587.98;;;5.73;91.31
61898;BME280;47850;50.274;18.908;2024-02-15T00:28:07;98590.02;;;5.73;91.32
61898;BME280;47850;50.274;18.908;2024-02-15T00:30:35;98590.41;;;5.73;91.52
61898;BME280;47850;50.274;18.908;2024-02-15T00:33:03;98595.55;;;5.73;91.47
61898;BME280;47850;50.274;18.908;2024-02-15T00:35:31;98598.30;;;5.72;91.52
61898;BME280;47850;50.274;18.908;2024-02-15T00:37:59;98603.73;;;5.73;91.61
61898;BME280;47850;50.274;18.908;2024-02-15T00:40:27;98606.80;;;5.74;91.50
61898;BME280;47850;50.274;18.908;2024-02-15T00:42:55;98608.58;;;5.74;91.50
61898;BME280;47850;50.274;18.908;2024-02-15T00:45:23;98610.48;;;5.74;91.51
61898;BME280;47850;50.274;18.908;2024-02-15T00:47:50;98612.27;;;5.74;91.67
61898;BME280;47850;50.274;18.908;2024-02-15T00:50:18;98614.27;;;5.75;91.70
61898;BME280;47850;50.274;18.908;2024-02-15T00:52:46;98612.00;;;5.74;91.57
61898;BME280;47850;50.274;18.908;2024-02-15T00:55:14;98612.92;;;5.75;91.53
61898;BME280;47850;50.274;18.908;2024-02-15T00:57:41;98611.94;;;5.77;91.46
61898;BME280;47850;50.274;18.908;2024-02-15T01:00:09;98619.29;;;5.78;91.39
61898;BME280;47850;50.274;18.908;2024-02-15T01:02:37;98615.83;;;5.79;91.22
61898;BME280;47850;50.274;18.908;2024-02-15T01:05:05;98618.15;;;5.80;91.28
61898;BME280;47850;50.274;18.908;2024-02-15T01:07:33;98618.48;;;5.80;91.24
61898;BME280;47850;50.274;18.908;2024-02-15T01:10:01;98612.79;;;5.80;91.29
61898;BME280;47850;50.274;18.908;2024-02-15T01:12:30;98613.00;;;5.80;91.44
61898;BME280;47850;50.274;18.908;2024-02-15T01:14:57;98608.63;;;5.80;91.33
61898;BME280;47850;50.274;18.908;2024-02-15T01:17:25;98610.41;;;5.79;91.57
61898;BME280;47850;50.274;18.908;2024-02-15T01:19:53;98609.70;;;5.78;91.45
61898;BME280;47850;50.274;18.908;2024-02-15T01:22:21;98606.73;;;5.78;91.66
61898;BME280;47850;50.274;18.908;2024-02-15T01:24:51;98601.55;;;5.77;91.62
61898;BME280;47850;50.274;18.908;2024-02-15T01:27:19;98601.02;;;5.77;91.61
61898;BME280;47850;50.274;18.908;2024-02-15T01:29:47;98601.23;;;5.75;91.75
61898;BME280;47850;50.274;18.908;2024-02-15T01:32:14;98598.52;;;5.74;91.70
61898;BME280;47850;50.274;18.908;2024-02-15T01:34:42;98594.30;;;5.75;91.77
61898;BME280;47850;50.274;18.908;2024-02-15T01:37:10;98588.94;;;5.74;91.72
61898;BME280;47850;50.274;18.908;2024-02-15T01:39:38;98584.61;;;5.74;91.71
61898;BME280;47850;50.274;18.908;2024-02-15T01:42:05;98586.02;;;5.74;91.69
61898;BME280;47850;50.274;18.908;2024-02-15T01:44:34;98584.73;;;5.75;91.68
61898;BME280;47850;50.274;18.908;2024-02-15T01:47:04;98582.55;;;5.75;91.52
61898;BME280;47850;50.274;18.908;2024-02-15T01:49:32;98581.47;;;5.75;91.58
61898;BME280;47850;50.274;18.908;2024-02-15T01:52:01;98578.01;;;5.75;91.50
61898;BME280;47850;50.274;18.908;2024-02-15T01:54:30;98573.56;;;5.75;91.68
61898;BME280;47850;50.274;18.908;2024-02-15T01:56:59;98576.43;;;5.76;91.77
61898;BME280;47850;50.274;18.908;2024-02-15T01:59:26;98576.00;;;5.75;91.79
61898;BME280;47850;50.274;18.908;2024-02-15T02:01:54;98571.88;;;5.75;91.85
61898;BME280;47850;50.274;18.908;2024-02-15T02:04:22;98572.05;;;5.75;91.73
61898;BME280;47850;50.274;18.908;2024-02-15T02:06:50;98572.11;;;5.75;91.79
61898;BME280;47850;50.274;18.908;2024-02-15T02:09:18;98569.52;;;5.74;91.88
61898;BME280;47850;50.274;18.908;2024-02-15T02:11:46;98566.92;;;5.73;91.91
61898;BME280;47850;50.274;18.908;2024-02-15T02:14:14;98566.96;;;5.73;91.97
61898;BME280;47850;50.274;18.908;2024-02-15T02:16:42;98565.57;;;5.73;92.05
61898;BME280;47850;50.274;18.908;2024-02-15T02:19:10;98564.65;;;5.73;92.00
61898;BME280;47850;50.274;18.908;2024-02-15T02:21:38;98569.46;;;5.73;92.01
61898;BME280;47850;50.274;18.908;2024-02-15T02:24:14;98563.73;;;5.73;91.95
61898;BME280;47850;50.274;18.908;2024-02-15T02:26:45;98566.06;;;5.73;91.93
61898;BME280;47850;50.274;18.908;2024-02-15T02:29:15;98565.14;;;5.73;91.93
61898;BME280;47850;50.274;18.908;2024-02-15T02:31:43;98564.27;;;5.73;91.99
61898;BME280;47850;50.274;18.908;2024-02-15T02:34:10;98556.76;;;5.73;92.03
61898;BME280;47850;50.274;18.908;2024-02-15T02:36:38;98554.75;;;5.72;92.09
61898;BME280;47850;50.274;18.908;2024-02-15T02:39:08;98555.14;;;5.71;92.19
61898;BME280;47850;50.274;18.908;2024-02-15T02:41:36;98557.80;;;5.70;92.42
61898;BME280;47850;50.274;18.908;2024-02-15T02:44:03;98555.15;;;5.69;92.40
61898;BME280;47850;50.274;18.908;2024-02-15T02:46:32;98553.47;;;5.68;92.39
61898;BME280;47850;50.274;18.908;2024-02-15T02:48:59;98554.93;;;5.67;92.51
61898;BME280;47850;50.274;18.908;2024-02-15T02:51:27;98552.88;;;5.65;92.52
61898;BME280;47850;50.274;18.908;2024-02-15T02:53:55;98551.16;;;5.65;92.57
61898;BME280;47850;50.274;18.908;2024-02-15T02:56:23;98551.75;;;5.64;92.66
61898;BME280;47850;50.274;18.908;2024-02-15T02:58:51;98552.58;;;5.63;92.75
61898;BME280;47850;50.274;18.908;2024-02-15T03:01:22;98550.39;;;5.64;92.80
61898;BME280;47850;50.274;18.908;2024-02-15T03:03:53;98549.38;;;5.63;92.81
61898;BME280;47850;50.274;18.908;2024-02-15T03:06:24;98551.93;;;5.63;92.77
61898;BME280;47850;50.274;18.908;2024-02-15T03:08:52;98553.55;;;5.63;92.82
61898;BME280;47850;50.274;18.908;2024-02-15T03:11:21;98552.13;;;5.64;92.81
61898;BME280;47850;50.274;18.908;2024-02-15T03:13:50;98553.48;;;5.64;92.84
61898;BME280;47850;50.274;18.908;2024-02-15T03:16:22;98556.84;;;5.64;92.79
61898;BME280;47850;50.274;18.908;2024-02-15T03:18:50;98555.80;;;5.65;92.93
61898;BME280;47850;50.274;18.908;2024-02-15T03:21:18;98557.64;;;5.65;92.90
61898;BME280;47850;50.274;18.908;2024-02-15T03:23:48;98553.21;;;5.65;93.07
61898;BME280;47850;50.274;18.908;2024-02-15T03:26:15;98557.37;;;5.66;93.12
61898;BME280;47850;50.274;18.908;2024-02-15T03:28:43;98558.73;;;5.66;92.99
61898;BME280;47850;50.274;18.908;2024-02-15T03:31:12;98558.19;;;5.67;92.99
61898;BME280;47850;50.274;18.908;2024-02-15T03:33:40;98558.83;;;5.67;93.00
61898;BME280;47850;50.274;18.908;2024-02-15T03:36:08;98560.73;;;5.67;93.03
61898;BME280;47850;50.274;18.908;2024-02-15T03:38:37;98557.52;;;5.67;93.01
61898;BME280;47850;50.274;18.908;2024-02-15T03:41:05;98556.94;;;5.68;93.12
61898;BME280;47850;50.274;18.908;2024-02-15T03:43:33;98555.20;;;5.68;93.04
61898;BME280;47850;50.274;18.908;2024-02-15T03:46:01;98556.60;;;5.69;92.95
61898;BME280;47850;50.274;18.908;2024-02-15T03:48:29;98553.20;;;5.70;92.91
61898;BME280;47850;50.274;18.908;2024-02-15T03:50:58;98557.89;;;5.70;92.90
61898;BME280;47850;50.274;18.908;2024-02-15T03:53:26;98559.40;;;5.71;92.81
61898;BME280;47850;50.274;18.908;2024-02-15T03:55:53;98556.05;;;5.72;92.86
61898;BME280;47850;50.274;18.908;2024-02-15T03:58:21;98555.29;;;5.72;92.72
61898;BME280;47850;50.274;18.908;2024-02-15T04:00:49;98557.50;;;5.72;92.69
61898;BME280;47850;50.274;18.908;2024-02-15T04:03:17;98553.02;;;5.71;92.78
61898;BME280;47850;50.274;18.908;2024-02-15T04:05:45;98548.30;;;5.72;92.79
61898;BME280;47850;50.274;18.908;2024-02-15T04:08:13;98547.55;;;5.72;92.83
61898;BME280;47850;50.274;18.908;2024-02-15T04:10:43;98546.58;;;5.71;92.84
61898;BME280;47850;50.274;18.908;2024-02-15T04:13:13;98545.89;;;5.70;92.93
61898;BME280;47850;50.274;18.908;2024-02-15T04:15:41;98547.78;;;5.69;92.98
61898;BME280;47850;50.274;18.908;2024-02-15T04:18:11;98552.23;;;5.69;92.98
61898;BME280;47850;50.274;18.908;2024-02-15T04:20:40;98553.90;;;5.69;93.04
61898;BME280;47850;50.274;18.908;2024-02-15T04:23:12;98551.14;;;5.68;93.17
61898;BME280;47850;50.274;18.908;2024-02-15T04:25:40;98551.57;;;5.67;93.20
61898;BME280;47850;50.274;18.908;2024-02-15T04:28:08;98556.27;;;5.67;93.27
61898;BME280;47850;50.274;18.908;2024-02-15T04:30:36;98554.77;;;5.67;93.29
61898;BME280;47850;50.274;18.908;2024-02-15T04:33:06;98553.36;;;5.67;93.46
61898;BME280;47850;50.274;18.908;2024-02-15T04:35:35;98552.39;;;5.67;93.39
61898;BME280;47850;50.274;18.908;2024-02-15T04:38:03;98555.33;;;5.66;93.55
61898;BME280;47850;50.274;18.908;2024-02-15T04:40:31;98554.84;;;5.65;93.65
61898;BME280;47850;50.274;18.908;2024-02-15T04:42:59;98556.52;;;5.65;93.83
61898;BME280;47850;50.274;18.908;2024-02-15T04:45:29;98554.99;;;5.65;93.82
61898;BME280;47850;50.274;18.908;2024-02-15T04:47:58;98552.34;;;5.63;93.84
61898;BME280;47850;50.274;18.908;2024-02-15T04:50:29;98552.69;;;5.63;93.99
61898;BME280;47850;50.274;18.908;2024-02-15T04:52:57;98554.80;;;5.62;94.06
61898;BME280;47850;50.274;18.908;2024-02-15T04:55:24;98559.45;;;5.62;94.13
61898;BME280;47850;50.274;18.908;2024-02-15T04:57:54;98563.35;;;5.62;94.16
61898;BME280;47850;50.274;18.908;2024-02-15T05:00:23;98567.35;;;5.62;94.22
61898;BME280;47850;50.274;18.908;2024-02-15T05:02:53;98566.86;;;5.63;94.26
61898;BME280;47850;50.274;18.908;2024-02-15T05:05:20;98571.52;;;5.63;94.32
61898;BME280;47850;50.274;18.908;2024-02-15T05:07:49;98569.02;;;5.64;94.35
61898;BME280;47850;50.274;18.908;2024-02-15T05:10:18;98569.02;;;5.64;94.34
61898;BME280;47850;50.274;18.908;2024-02-15T05:12:46;98570.80;;;5.63;94.36
61898;BME280;47850;50.274;18.908;2024-02-15T05:15:16;98577.69;;;5.61;94.66
61898;BME280;47850;50.274;18.908;2024-02-15T05:17:45;98581.36;;;5.60;94.74
61898;BME280;47850;50.274;18.908;2024-02-15T05:20:13;98576.66;;;5.59;94.79
61898;BME280;47850;50.274;18.908;2024-02-15T05:22:41;98579.37;;;5.58;94.78
61898;BME280;47850;50.274;18.908;2024-02-15T05:25:15;98578.08;;;5.57;94.95
61898;BME280;47850;50.274;18.908;2024-02-15T05:27:43;98584.20;;;5.56;95.05
61898;BME280;47850;50.274;18.908;2024-02-15T05:30:12;98587.00;;;5.57;95.11
61898;BME280;47850;50.274;18.908;2024-02-15T05:32:40;98590.96;;;5.58;95.22
61898;BME280;47850;50.274;18.908;2024-02-15T05:35:12;98590.57;;;5.59;95.19
61898;BME280;47850;50.274;18.908;2024-02-15T05:37:40;98587.69;;;5.60;95.26
61898;BME280;47850;50.274;18.908;2024-02-15T05:40:08;98588.79;;;5.60;95.31
61898;BME280;47850;50.274;18.908;2024-02-15T05:42:42;98584.45;;;5.60;95.27
61898;BME280;47850;50.274;18.908;2024-02-15T05:47:53;98594.13;;;5.61;95.35
61898;BME280;47850;50.274;18.908;2024-02-15T05:50:21;98596.58;;;5.60;95.35
61898;BME280;47850;50.274;18.908;2024-02-15T05:52:49;98597.38;;;5.59;95.42
61898;BME280;47850;50.274;18.908;2024-02-15T05:55:16;98599.88;;;5.58;95.39
61898;BME280;47850;50.274;18.908;2024-02-15T05:57:44;98598.80;;;5.56;95.44
61898;BME280;47850;50.274;18.908;2024-02-15T06:00:13;98603.20;;;5.55;95.51
61898;BME280;47850;50.274;18.908;2024-02-15T06:02:42;98601.41;;;5.53;95.55
61898;BME280;47850;50.274;18.908;2024-02-15T06:05:11;98607.97;;;5.51;95.74
61898;BME280;47850;50.274;18.908;2024-02-15T06:07:39;98605.59;;;5.48;95.82
61898;BME280;47850;50.274;18.908;2024-02-15T06:10:07;98609.11;;;5.45;95.84
61898;BME280;47850;50.274;18.908;2024-02-15T06:12:35;98610.80;;;5.42;96.00
61898;BME280;47850;50.274;18.908;2024-02-15T06:15:04;98611.41;;;5.38;96.30
61898;BME280;47850;50.274;18.908;2024-02-15T06:17:32;98613.23;;;5.36;96.51
61898;BME280;47850;50.274;18.908;2024-02-15T06:20:02;98615.92;;;5.35;96.59
61898;BME280;47850;50.274;18.908;2024-02-15T06:22:29;98615.70;;;5.33;96.81
61898;BME280;47850;50.274;18.908;2024-02-15T06:24:58;98616.95;;;5.32;97.07
61898;BME280;47850;50.274;18.908;2024-02-15T06:27:26;98614.02;;;5.31;97.14
61898;BME280;47850;50.274;18.908;2024-02-15T06:29:53;98615.70;;;5.31;97.24
61898;BME280;47850;50.274;18.908;2024-02-15T06:32:40;98614.61;;;5.30;97.60
61898;BME280;47850;50.274;18.908;2024-02-15T06:35:34;98620.19;;;5.29;97.61
61898;BME280;47850;50.274;18.908;2024-02-15T06:38:20;98621.31;;;5.26;97.74
61898;BME280;47850;50.274;18.908;2024-02-15T06:41:06;98623.61;;;5.24;97.86
61898;BME280;47850;50.274;18.908;2024-02-15T06:43:35;98621.88;;;5.22;98.08
61898;BME280;47850;50.274;18.908;2024-02-15T06:46:06;98619.71;;;5.20;98.05
61898;BME280;47850;50.274;18.908;2024-02-15T06:48:34;98623.61;;;5.18;98.29
61898;BME280;47850;50.274;18.908;2024-02-15T06:51:02;98625.29;;;5.18;98.48
61898;BME280;47850;50.274;18.908;2024-02-15T06:53:30;98629.45;;;5.20;98.57
61898;BME280;47850;50.274;18.908;2024-02-15T06:55:58;98627.05;;;5.22;98.71
61898;BME280;47850;50.274;18.908;2024-02-15T06:58:26;98631.17;;;5.26;98.69
61898;BME280;47850;50.274;18.908;2024-02-15T07:00:54;98633.60;;;5.31;98.60
61898;BME280;47850;50.274;18.908;2024-02-15T07:03:22;98632.55;;;5.37;98.50
61898;BME280;47850;50.274;18.908;2024-02-15T07:05:51;98634.92;;;5.43;98.46
61898;BME280;47850;50.274;18.908;2024-02-15T07:08:19;98632.28;;;5.47;98.08
61898;BME280;47850;50.274;18.908;2024-02-15T07:10:46;98630.20;;;5.50;98.05
61898;BME280;47850;50.274;18.908;2024-02-15T07:13:14;98633.65;;;5.54;97.95
61898;BME280;47850;50.274;18.908;2024-02-15T07:15:42;98629.86;;;5.57;97.73
61898;BME280;47850;50.274;18.908;2024-02-15T07:18:12;98627.27;;;5.58;97.59
61898;BME280;47850;50.274;18.908;2024-02-15T07:20:45;98635.52;;;5.60;97.56
61898;BME280;47850;50.274;18.908;2024-02-15T07:23:13;98635.03;;;5.63;97.40
61898;BME280;47850;50.274;18.908;2024-02-15T07:25:42;98634.38;;;5.69;97.45
61898;BME280;47850;50.274;18.908;2024-02-15T07:28:10;98635.11;;;5.75;97.32
61898;BME280;47850;50.274;18.908;2024-02-15T07:30:38;98637.24;;;5.84;97.20
61898;BME280;47850;50.274;18.908;2024-02-15T07:33:06;98634.94;;;5.93;96.76
61898;BME280;47850;50.274;18.908;2024-02-15T07:35:34;98638.59;;;6.03;96.44
61898;BME280;47850;50.274;18.908;2024-02-15T07:38:02;98638.89;;;6.12;95.97
61898;BME280;47850;50.274;18.908;2024-02-15T07:40:32;98642.90;;;6.23;95.64
61898;BME280;47850;50.274;18.908;2024-02-15T07:43:01;98640.14;;;6.32;95.48
61898;BME280;47850;50.274;18.908;2024-02-15T07:45:31;98642.52;;;6.43;94.84
61898;BME280;47850;50.274;18.908;2024-02-15T07:48:00;98642.06;;;6.53;94.63
61898;BME280;47850;50.274;18.908;2024-02-15T07:50:28;98643.33;;;6.66;93.90
61898;BME280;47850;50.274;18.908;2024-02-15T07:52:56;98640.70;;;6.78;93.52
61898;BME280;47850;50.274;18.908;2024-02-15T07:55:25;98637.40;;;6.91;92.89
61898;BME280;47850;50.274;18.908;2024-02-15T07:57:53;98636.70;;;7.05;92.44
61898;BME280;47850;50.274;18.908;2024-02-15T08:00:20;98635.52;;;7.20;91.81
61898;BME280;47850;50.274;18.908;2024-02-15T08:02:48;98640.38;;;7.35;91.17
61898;BME280;47850;50.274;18.908;2024-02-15T08:05:16;98637.47;;;7.49;90.65
61898;BME280;47850;50.274;18.908;2024-02-15T08:07:44;98636.55;;;7.64;89.64
61898;BME280;47850;50.274;18.908;2024-02-15T08:10:13;98634.62;;;7.77;89.24
61898;BME280;47850;50.274;18.908;2024-02-15T08:12:45;98628.64;;;7.91;88.57
61898;BME280;47850;50.274;18.908;2024-02-15T08:15:13;98623.41;;;8.05;88.59
61898;BME280;47850;50.274;18.908;2024-02-15T08:17:43;98622.66;;;8.21;87.55
61898;BME280;47850;50.274;18.908;2024-02-15T08:20:15;98616.20;;;8.32;87.14
61898;BME280;47850;50.274;18.908;2024-02-15T08:22:44;98613.98;;;8.45;86.89
61898;BME280;47850;50.274;18.908;2024-02-15T08:25:13;98610.91;;;8.54;86.32
61898;BME280;47850;50.274;18.908;2024-02-15T08:27:44;98614.38;;;8.63;86.06
61898;BME280;47850;50.274;18.908;2024-02-15T08:30:14;98614.52;;;8.71;85.53
61898;BME280;47850;50.274;18.908;2024-02-15T08:32:42;98612.44;;;8.76;84.82
61898;BME280;47850;50.274;18.908;2024-02-15T08:35:14;98618.53;;;8.79;84.61
61898;BME280;47850;50.274;18.908;2024-02-15T08:37:41;98619.23;;;8.79;84.02
61898;BME280;47850;50.274;18.908;2024-02-15T08:40:11;98617.93;;;8.79;84.18
61898;BME280;47850;50.274;18.908;2024-02-15T08:42:40;98621.46;;;8.76;83.31
61898;BME280;47850;50.274;18.908;2024-02-15T08:45:10;98620.23;;;8.75;83.51
61898;BME280;47850;50.274;18.908;2024-02-15T08:47:39;98620.05;;;8.76;83.16
61898;BME280;47850;50.274;18.908;2024-02-15T08:50:08;98618.63;;;8.81;83.42
61898;BME280;47850;50.274;18.908;2024-02-15T08:52:38;98616.44;;;8.87;83.28
61898;BME280;47850;50.274;18.908;2024-02-15T08:55:07;98618.80;;;8.93;82.93
61898;BME280;47850;50.274;18.908;2024-02-15T08:57:37;98620.43;;;8.97;82.66
61898;BME280;47850;50.274;18.908;2024-02-15T09:00:08;98620.95;;;9.01;82.59
61898;BME280;47850;50.274;18.908;2024-02-15T09:02:44;98625.37;;;9.07;82.70
61898;BME280;47850;50.274;18.908;2024-02-15T09:05:13;98625.22;;;9.16;82.98
61898;BME280;47850;50.274;18.908;2024-02-15T09:07:42;98625.34;;;9.25;82.19
61898;BME280;47850;50.274;18.908;2024-02-15T09:10:10;98622.79;;;9.30;81.35
61898;BME280;47850;50.274;18.908;2024-02-15T09:12:39;98622.21;;;9.35;81.39
61898;BME280;47850;50.274;18.908;2024-02-15T09:15:09;98616.23;;;9.40;81.22
61898;BME280;47850;50.274;18.908;2024-02-15T09:17:38;98616.42;;;9.48;81.64
61898;BME280;47850;50.274;18.908;2024-02-15T09:20:11;98615.70;;;9.58;81.66
61898;BME280;47850;50.274;18.908;2024-02-15T09:22:51;98619.13;;;9.60;80.36
61898;BME280;47850;50.274;18.908;2024-02-15T09:25:21;98622.71;;;9.59;80.90
61898;BME280;47850;50.274;18.908;2024-02-15T09:27:52;98622.73;;;9.57;80.68
61898;BME280;47850;50.274;18.908;2024-02-15T09:30:23;98629.19;;;9.55;80.77
61898;BME280;47850;50.274;18.908;2024-02-15T09:32:52;98630.80;;;9.51;79.85
61898;BME280;47850;50.274;18.908;2024-02-15T09:35:20;98631.51;;;9.45;80.21
61898;BME280;47850;50.274;18.908;2024-02-15T09:37:49;98630.77;;;9.45;80.95
61898;BME280;47850;50.274;18.908;2024-02-15T09:40:18;98628.65;;;9.50;81.38
61898;BME280;47850;50.274;18.908;2024-02-15T09:42:46;98627.65;;;9.53;80.65
61898;BME280;47850;50.274;18.908;2024-02-15T09:45:15;98629.94;;;9.56;81.01
61898;BME280;47850;50.274;18.908;2024-02-15T09:47:45;98629.36;;;9.58;80.46
61898;BME280;47850;50.274;18.908;2024-02-15T09:50:15;98632.95;;;9.58;79.75
61898;BME280;47850;50.274;18.908;2024-02-15T09:52:50;98624.67;;;9.59;79.91
61898;BME280;47850;50.274;18.908;2024-02-15T09:55:20;98624.77;;;9.61;80.12
61898;BME280;47850;50.274;18.908;2024-02-15T09:57:50;98622.17;;;9.66;80.23
61898;BME280;47850;50.274;18.908;2024-02-15T10:00:18;98622.00;;;9.75;80.36
61898;BME280;47850;50.274;18.908;2024-02-15T10:02:53;98622.60;;;9.83;79.84
61898;BME280;47850;50.274;18.908;2024-02-15T10:05:21;98628.05;;;9.89;78.98
61898;BME280;47850;50.274;18.908;2024-02-15T10:07:50;98629.42;;;9.94;79.40
61898;BME280;47850;50.274;18.908;2024-02-15T10:12:50;98622.31;;;10.03;79.00
61898;BME280;47850;50.274;18.908;2024-02-15T10:18:07;98623.11;;;10.10;78.14
61898;BME280;47850;50.274;18.908;2024-02-15T10:20:39;98620.17;;;10.17;78.35
61898;BME280;47850;50.274;18.908;2024-02-15T10:23:13;98617.73;;;10.32;78.60
61898;BME280;47850;50.274;18.908;2024-02-15T10:25:41;98615.85;;;10.54;77.67
61898;BME280;47850;50.274;18.908;2024-02-15T10:28:13;98614.98;;;10.77;77.02
61898;BME280;47850;50.274;18.908;2024-02-15T10:30:43;98616.50;;;11.02;76.62
61898;BME280;47850;50.274;18.908;2024-02-15T10:33:31;98610.79;;;11.30;75.28
61898;BME280;47850;50.274;18.908;2024-02-15T10:36:06;98606.58;;;11.52;73.63
61898;BME280;47850;50.274;18.908;2024-02-15T10:38:35;98607.27;;;11.72;72.79
61898;BME280;47850;50.274;18.908;2024-02-15T10:41:07;98612.08;;;11.85;72.36
61898;BME280;47850;50.274;18.908;2024-02-15T10:43:36;98611.47;;;12.05;71.81
61898;BME280;47850;50.274;18.908;2024-02-15T10:46:07;98607.73;;;12.17;70.29
61898;BME280;47850;50.274;18.908;2024-02-15T10:48:38;98609.55;;;12.31;70.21
61898;BME280;47850;50.274;18.908;2024-02-15T10:51:09;98604.48;;;12.45;70.05
61898;BME280;47850;50.274;18.908;2024-02-15T10:53:44;98604.73;;;12.69;69.57
61898;BME280;47850;50.274;18.908;2024-02-15T10:56:18;98602.09;;;12.90;68.31
61898;BME280;47850;50.274;18.908;2024-02-15T10:58:58;98597.81;;;13.02;67.18
61898;BME280;47850;50.274;18.908;2024-02-15T11:01:29;98602.46;;;12.97;66.70
61898;BME280;47850;50.274;18.908;2024-02-15T11:04:06;98601.09;;;12.85;65.88
61898;BME280;47850;50.274;18.908;2024-02-15T11:06:38;98606.61;;;12.56;66.27
61898;BME280;47850;50.274;18.908;2024-02-15T11:09:10;98602.13;;;12.35;67.56
61898;BME280;47850;50.274;18.908;2024-02-15T11:11:40;98604.55;;;12.25;67.83
61898;BME280;47850;50.274;18.908;2024-02-15T11:16:59;98593.73;;;12.15;68.42
61898;BME280;47850;50.274;18.908;2024-02-15T11:22:14;98594.67;;;12.44;67.66
61898;BME280;47850;50.274;18.908;2024-02-15T11:24:48;98586.38;;;12.51;67.40
61898;BME280;47850;50.274;18.908;2024-02-15T11:27:29;98587.77;;;12.53;67.31
61898;BME280;47850;50.274;18.908;2024-02-15T11:29:58;98588.75;;;12.55;67.22
61898;BME280;47850;50.274;18.908;2024-02-15T11:32:41;98585.05;;;12.48;66.66
61898;BME280;47850;50.274;18.908;2024-02-15T11:35:16;98582.21;;;12.42;67.49
61898;BME280;47850;50.274;18.908;2024-02-15T11:42:53;98582.80;;;12.39;67.56
61898;BME280;47850;50.274;18.908;2024-02-15T11:45:21;98578.13;;;12.41;67.91
61898;BME280;47850;50.274;18.908;2024-02-15T11:47:50;98573.25;;;12.54;68.11
61898;BME280;47850;50.274;18.908;2024-02-15T11:50:20;98578.54;;;12.63;67.08
61898;BME280;47850;50.274;18.908;2024-02-15T11:52:50;98575.42;;;12.59;66.73
61898;BME280;47850;50.274;18.908;2024-02-15T11:55:20;98572.30;;;12.56;66.62
61898;BME280;47850;50.274;18.908;2024-02-15T11:57:55;98567.40;;;12.55;66.72
61898;BME280;47850;50.274;18.908;2024-02-15T12:00:31;98563.09;;;12.64;67.29
61898;BME280;47850;50.274;18.908;2024-02-15T12:03:18;98561.63;;;12.79;66.86
61898;BME280;47850;50.274;18.908;2024-02-15T12:06:06;98564.11;;;12.87;65.96
61898;BME280;47850;50.274;18.908;2024-02-15T12:08:54;98561.58;;;12.92;66.12
61898;BME280;47850;50.274;18.908;2024-02-15T12:11:41;98558.83;;;13.18;66.07
61898;BME280;47850;50.274;18.908;2024-02-15T12:14:27;98555.84;;;13.42;65.80
61898;BME280;47850;50.274;18.908;2024-02-15T12:17:14;98559.72;;;13.54;64.68
61898;BME280;47850;50.274;18.908;2024-02-15T12:20:02;98556.84;;;13.57;64.87
61898;BME280;47850;50.274;18.908;2024-02-15T12:22:41;98556.67;;;13.64;64.03
61898;BME280;47850;50.274;18.908;2024-02-15T12:25:16;98554.30;;;13.62;63.37
61898;BME280;47850;50.274;18.908;2024-02-15T12:27:44;98551.27;;;13.67;64.15
61898;BME280;47850;50.274;18.908;2024-02-15T12:30:16;98550.29;;;13.75;63.56
61898;BME280;47850;50.274;18.908;2024-02-15T12:32:48;98548.79;;;13.79;63.34
61898;BME280;47850;50.274;18.908;2024-02-15T12:35:21;98547.94;;;13.81;62.44
61898;BME280;47850;50.274;18.908;2024-02-15T12:40:37;98549.25;;;14.26;61.28
61898;BME280;47850;50.274;18.908;2024-02-15T12:43:06;98543.64;;;14.20;62.01
61898;BME280;47850;50.274;18.908;2024-02-15T12:45:36;98545.10;;;14.20;61.93
61898;BME280;47850;50.274;18.908;2024-02-15T12:48:05;98542.16;;;14.04;62.15
61898;BME280;47850;50.274;18.908;2024-02-15T12:50:34;98541.75;;;13.85;62.64
61898;BME280;47850;50.274;18.908;2024-02-15T12:53:02;98533.95;;;13.70;63.51
61898;BME280;47850;50.274;18.908;2024-02-15T12:55:32;98540.19;;;13.59;63.86
61898;BME280;47850;50.274;18.908;2024-02-15T12:58:03;98536.34;;;13.49;64.74
61898;BME280;47850;50.274;18.908;2024-02-15T13:00:31;98537.98;;;13.43;64.91
61898;BME280;47850;50.274;18.908;2024-02-15T13:03:02;98540.84;;;13.33;65.48
61898;BME280;47850;50.274;18.908;2024-02-15T13:05:31;98535.19;;;13.25;66.22
61898;BME280;47850;50.274;18.908;2024-02-15T13:07:59;98536.42;;;13.31;66.87
61898;BME280;47850;50.274;18.908;2024-02-15T13:10:31;98530.50;;;13.37;66.41
61898;BME280;47850;50.274;18.908;2024-02-15T13:13:00;98532.92;;;13.29;66.09
61898;BME280;47850;50.274;18.908;2024-02-15T13:15:28;98529.40;;;13.14;66.48
61898;BME280;47850;50.274;18.908;2024-02-15T13:18:00;98530.66;;;13.01;67.33
61898;BME280;47850;50.274;18.908;2024-02-15T13:20:31;98529.52;;;12.96;67.98
61898;BME280;47850;50.274;18.908;2024-02-15T13:23:10;98529.42;;;12.96;68.21
61898;BME280;47850;50.274;18.908;2024-02-15T13:25:54;98524.02;;;12.95;68.39
61898;BME280;47850;50.274;18.908;2024-02-15T13:28:24;98525.46;;;12.98;68.38
61898;BME280;47850;50.274;18.908;2024-02-15T13:30:52;98519.37;;;12.98;68.45
61898;BME280;47850;50.274;18.908;2024-02-15T13:33:23;98520.94;;;13.05;68.60